Time;durP1;ratioP1;P1;durP2;ratioP2;P2;SDS_P1;SDS_P2;PMS_P1;PMS_P2;Temp;Humidity;BMP_temperature;BMP_pressure;BME280_temperature;BME280_humidity;BME280_pressure;Samples;Min_cycle;Max_cycle;Signal;HPM_P1;HPM_P2
2021/01/02 00:00:54;;;;;;;65.90;30.92;;;;;;;;;;5094232;28;20016;-70
2021/01/02 00:03:28;;;;;;;61.58;28.15;;;;;;;;;;5075899;28;20023;-69
2021/01/02 00:06:01;;;;;;;57.08;28.48;;;;;;;;;;5093562;28;20016;-70
2021/01/02 00:08:27;;;;;;;59.10;28.20;;;;;;;;;;5094357;28;20487;-70
2021/01/02 00:10:53;;;;;;;61.03;29.77;;;;;;;;;;5075903;28;20051;-70
2021/01/02 00:13:29;;;;;;;63.17;28.92;;;;;;;;;;5093979;28;20027;-70
2021/01/02 00:16:04;;;;;;;58.42;29.38;;;;;;;;;;5093209;28;20499;-70
2021/01/02 00:18:32;;;;;;;57.45;26.98;;;;;;;;;;5093360;28;20095;-70
2021/01/02 00:21:07;;;;;;;57.85;27.05;;;;;;;;;;5075577;28;20016;-69
2021/01/02 00:23:32;;;;;;;60.70;27.65;;;;;;;;;;5093720;28;20028;-70
2021/01/02 00:26:05;;;;;;;53.13;24.77;;;;;;;;;;5096353;28;20027;-69
2021/01/02 00:28:31;;;;;;;58.70;27.35;;;;;;;;;;5075555;28;20031;-70
2021/01/02 00:31:08;;;;;;;50.22;25.85;;;;;;;;;;5093762;28;20020;-69
2021/01/02 00:33:34;;;;;;;53.65;26.83;;;;;;;;;;5093463;28;20103;-70
2021/01/02 00:36:05;;;;;;;51.03;26.10;;;;;;;;;;5093228;28;20096;-69
2021/01/02 00:38:36;;;;;;;53.55;26.30;;;;;;;;;;5075627;28;20019;-71
2021/01/02 00:41:02;;;;;;;54.38;24.70;;;;;;;;;;5093398;28;20008;-70
2021/01/02 00:43:27;;;;;;;55.95;26.60;;;;;;;;;;5093387;28;20035;-70
2021/01/02 00:45:53;;;;;;;50.50;24.63;;;;;;;;;;5093189;28;20028;-69
2021/01/02 00:48:18;;;;;;;48.40;24.65;;;;;;;;;;5092502;28;20542;-70
2021/01/02 00:50:44;;;;;;;46.35;22.65;;;;;;;;;;5093586;28;20012;-70
2021/01/02 00:53:19;;;;;;;47.15;21.67;;;;;;;;;;5074999;28;20380;-70
2021/01/02 00:55:50;;;;;;;48.30;23.58;;;;;;;;;;5074883;28;20051;-70
2021/01/02 00:58:25;;;;;;;47.70;22.67;;;;;;;;;;5093243;28;20030;-70
2021/01/02 01:00:59;;;;;;;52.03;23.58;;;;;;;;;;5074923;28;20020;-70
2021/01/02 01:03:24;;;;;;;46.70;23.75;;;;;;;;;;5093227;28;20027;-70
2021/01/02 01:05:54;;;;;;;47.03;23.10;;;;;;;;;;5074826;28;20012;-71
2021/01/02 01:08:22;;;;;;;47.20;21.90;;;;;;;;;;5092916;28;20543;-70
2021/01/02 01:10:47;;;;;;;44.15;20.48;;;;;;;;;;5075202;28;20024;-71
2021/01/02 01:13:19;;;;;;;47.92;22.63;;;;;;;;;;5092789;28;20070;-70
2021/01/02 02:37:39;;;;;;;41.85;21.10;;;;;;;;;;978845;22;20344;-70
2021/01/02 02:40:06;;;;;;;37.42;19.02;;;;;;;;;;5114224;28;20070;-70
2021/01/02 02:42:33;;;;;;;40.45;19.38;;;;;;;;;;5097772;28;20388;-70
2021/01/02 02:44:59;;;;;;;39.03;18.88;;;;;;;;;;5080743;28;20509;-69
2021/01/02 02:47:25;;;;;;;40.85;19.33;;;;;;;;;;5115325;28;20016;-70
2021/01/02 02:49:51;;;;;;;32.70;16.85;;;;;;;;;;5115837;28;20086;-70
2021/01/02 02:52:27;;;;;;;34.45;16.58;;;;;;;;;;5115832;28;20016;-70
2021/01/02 02:54:52;;;;;;;33.70;16.73;;;;;;;;;;5097432;28;20016;-70
2021/01/02 02:57:19;;;;;;;36.22;16.98;;;;;;;;;;5097668;28;20062;-70
2021/01/02 02:59:44;;;;;;;33.92;16.55;;;;;;;;;;5097269;28;20020;-70
2021/01/02 03:02:10;;;;;;;35.80;17.40;;;;;;;;;;5115434;28;20027;-70
2021/01/02 03:04:35;;;;;;;34.60;17.05;;;;;;;;;;5097359;28;20038;-71
2021/01/02 03:07:03;;;;;;;31.75;15.90;;;;;;;;;;5097383;28;20022;-70
2021/01/02 03:09:29;;;;;;;29.38;15.07;;;;;;;;;;5115735;28;20414;-70
2021/01/02 03:11:55;;;;;;;30.40;14.88;;;;;;;;;;5115395;28;20024;-70
2021/01/02 03:14:20;;;;;;;34.05;15.93;;;;;;;;;;5115349;28;20026;-69
2021/01/02 03:16:46;;;;;;;31.65;15.65;;;;;;;;;;5076810;28;20111;-70
2021/01/02 03:19:11;;;;;;;27.55;14.20;;;;;;;;;;5094309;28;20028;-70
2021/01/02 03:21:37;;;;;;;27.20;13.80;;;;;;;;;;5095304;28;20528;-70
2021/01/02 03:24:03;;;;;;;31.48;15.35;;;;;;;;;;5093298;28;20024;-69
2021/01/02 03:26:28;;;;;;;33.00;16.17;;;;;;;;;;5094876;28;20020;-70
2021/01/02 03:28:54;;;;;;;27.67;14.27;;;;;;;;;;5094951;28;20087;-70
2021/01/02 03:31:20;;;;;;;25.73;14.02;;;;;;;;;;5076710;28;20020;-70
2021/01/02 03:33:46;;;;;;;30.60;14.48;;;;;;;;;;5076491;28;20069;-70
2021/01/02 03:36:12;;;;;;;27.83;13.73;;;;;;;;;;5094717;28;20475;-70
2021/01/02 03:38:37;;;;;;;26.58;13.98;;;;;;;;;;5094549;28;20047;-70
2021/01/02 03:41:03;;;;;;;29.95;14.95;;;;;;;;;;5075568;28;20012;-70
2021/01/02 03:43:28;;;;;;;23.25;13.20;;;;;;;;;;5076605;28;20027;-70
2021/01/02 03:45:54;;;;;;;26.27;13.57;;;;;;;;;;5094267;28;20008;-70
2021/01/02 03:48:20;;;;;;;25.30;14.75;;;;;;;;;;5093881;28;20020;-70
2021/01/02 03:50:45;;;;;;;24.90;14.00;;;;;;;;;;5076631;28;20040;-70
2021/01/02 03:53:11;;;;;;;27.45;12.52;;;;;;;;;;5076376;28;20357;-70
2021/01/02 03:55:36;;;;;;;26.75;13.90;;;;;;;;;;5076252;28;20072;-70
2021/01/02 03:58:02;;;;;;;27.17;13.00;;;;;;;;;;5076124;28;20014;-69
2021/01/02 04:00:28;;;;;;;22.60;12.77;;;;;;;;;;5076317;28;20023;-70
2021/01/02 04:02:53;;;;;;;26.60;13.95;;;;;;;;;;5076220;28;20016;-70
2021/01/02 04:05:19;;;;;;;23.98;12.73;;;;;;;;;;5067804;28;20024;-70
2021/01/02 04:07:44;;;;;;;23.13;11.65;;;;;;;;;;5076022;28;20065;-70
2021/01/02 04:10:10;;;;;;;23.13;12.68;;;;;;;;;;5094139;28;20036;-70
2021/01/02 04:12:35;;;;;;;23.42;11.80;;;;;;;;;;5094158;28;20484;-70
2021/01/02 04:15:04;;;;;;;23.90;12.30;;;;;;;;;;5075570;28;20016;-69
2021/01/02 04:17:30;;;;;;;32.42;13.70;;;;;;;;;;5093626;28;20030;-70
2021/01/02 04:19:55;;;;;;;24.65;12.13;;;;;;;;;;5093825;28;20024;-70
2021/01/02 04:22:21;;;;;;;24.98;12.48;;;;;;;;;;5076051;28;20434;-70
2021/01/02 04:24:46;;;;;;;23.08;11.90;;;;;;;;;;5097182;28;20046;-71
2021/01/02 04:27:11;;;;;;;27.27;12.63;;;;;;;;;;5094449;28;20020;-70
2021/01/02 04:29:40;;;;;;;24.15;10.65;;;;;;;;;;5093921;28;20478;-70
2021/01/02 04:32:06;;;;;;;20.20;9.93;;;;;;;;;;5093982;28;20091;-70
2021/01/02 04:34:31;;;;;;;19.05;10.38;;;;;;;;;;5075600;28;20165;-70
2021/01/02 04:36:57;;;;;;;17.95;9.23;;;;;;;;;;5075641;28;20118;-70
2021/01/02 04:39:22;;;;;;;19.80;10.82;;;;;;;;;;5075351;28;20401;-70
2021/01/02 04:41:48;;;;;;;18.02;9.23;;;;;;;;;;5093497;28;20120;-70
2021/01/02 04:44:14;;;;;;;18.58;9.93;;;;;;;;;;5093570;28;20105;-70
2021/01/02 04:46:40;;;;;;;23.20;9.65;;;;;;;;;;5075363;28;20031;-71
2021/01/02 04:49:06;;;;;;;20.20;10.10;;;;;;;;;;5074774;28;20030;-70
2021/01/02 04:51:31;;;;;;;17.73;9.75;;;;;;;;;;5075264;28;20020;-70
2021/01/02 04:54:00;;;;;;;18.95;9.38;;;;;;;;;;5093226;28;20027;-70
2021/01/02 04:56:27;;;;;;;13.98;8.18;;;;;;;;;;5093436;28;20026;-70
2021/01/02 04:58:52;;;;;;;16.65;8.52;;;;;;;;;;5091972;28;20507;-70
2021/01/02 05:01:18;;;;;;;14.00;7.95;;;;;;;;;;5093110;28;20059;-70
2021/01/02 05:03:44;;;;;;;19.33;8.32;;;;;;;;;;5074952;28;20024;-70
2021/01/02 05:06:09;;;;;;;14.73;7.65;;;;;;;;;;5093194;28;20048;-70
2021/01/02 05:08:34;;;;;;;19.30;8.00;;;;;;;;;;5091891;28;20020;-70
2021/01/02 05:11:00;;;;;;;15.57;7.75;;;;;;;;;;5074996;28;20543;-71
2021/01/02 05:13:36;;;;;;;21.95;11.02;;;;;;;;;;5093152;28;20016;-70
2021/01/02 05:16:11;;;;;;;20.77;10.20;;;;;;;;;;5074331;28;20111;-69
2021/01/02 05:18:50;;;;;;;16.83;8.48;;;;;;;;;;5092537;28;20384;-70
2021/01/02 05:21:15;;;;;;;14.77;7.57;;;;;;;;;;5093029;28;20016;-70
2021/01/02 05:23:45;;;;;;;16.90;8.15;;;;;;;;;;5092572;28;20031;-70
2021/01/02 05:26:10;;;;;;;11.95;6.85;;;;;;;;;;5091634;28;20012;-70
2021/01/02 05:28:35;;;;;;;14.98;7.75;;;;;;;;;;5093008;28;20016;-70
2021/01/02 05:31:10;;;;;;;16.08;8.88;;;;;;;;;;5092980;28;20349;-70
2021/01/02 05:33:35;;;;;;;17.45;8.43;;;;;;;;;;5092733;28;20016;-70
2021/01/02 05:36:01;;;;;;;15.30;7.15;;;;;;;;;;5092637;28;20357;-70
2021/01/02 05:38:27;;;;;;;15.00;8.70;;;;;;;;;;5071362;28;20055;-70
2021/01/02 05:40:53;;;;;;;17.58;7.57;;;;;;;;;;5054647;28;20091;-70
2021/01/02 05:43:20;;;;;;;17.05;8.65;;;;;;;;;;5072453;28;20024;-70
2021/01/02 05:45:45;;;;;;;14.43;8.40;;;;;;;;;;5072318;28;20017;-70
2021/01/02 05:48:12;;;;;;;15.32;8.88;;;;;;;;;;5071509;28;20013;-70
2021/01/02 05:50:47;;;;;;;20.23;8.35;;;;;;;;;;5054790;28;20063;-70
2021/01/02 05:53:22;;;;;;;15.45;7.35;;;;;;;;;;5072353;28;20047;-70
2021/01/02 05:55:56;;;;;;;12.15;6.95;;;;;;;;;;5072203;28;20018;-70
2021/01/02 05:58:21;;;;;;;13.38;6.95;;;;;;;;;;5072664;28;20820;-70
2021/01/02 06:00:47;;;;;;;13.48;7.68;;;;;;;;;;5054466;28;20074;-70
2021/01/02 06:03:22;;;;;;;16.00;7.32;;;;;;;;;;5054956;28;20048;-70
2021/01/02 06:05:57;;;;;;;15.15;7.72;;;;;;;;;;5076020;28;20100;-69
2021/01/02 06:08:32;;;;;;;18.83;8.73;;;;;;;;;;5075004;28;20479;-70
2021/01/02 06:10:59;;;;;;;17.08;8.48;;;;;;;;;;5076137;28;20024;-70
2021/01/02 06:13:27;;;;;;;17.77;8.60;;;;;;;;;;5076147;28;20020;-70
2021/01/02 06:15:56;;;;;;;21.35;9.25;;;;;;;;;;5075659;28;20481;-70
2021/01/02 06:18:21;;;;;;;22.77;9.90;;;;;;;;;;5075356;28;20445;-70
2021/01/02 06:20:47;;;;;;;19.33;8.25;;;;;;;;;;5058131;28;20048;-70
2021/01/02 06:23:13;;;;;;;13.32;6.82;;;;;;;;;;5076875;28;20084;-70
2021/01/02 06:25:38;;;;;;;16.30;7.72;;;;;;;;;;5060119;28;20509;-70
2021/01/02 06:28:04;;;;;;;15.20;7.45;;;;;;;;;;5075620;28;20110;-69
2021/01/02 06:30:29;;;;;;;11.63;5.78;;;;;;;;;;5058097;28;20046;-70
2021/01/02 06:32:55;;;;;;;9.98;5.15;;;;;;;;;;5075833;28;20469;-70
2021/01/02 06:35:21;;;;;;;12.32;6.25;;;;;;;;;;5057638;28;20020;-70
2021/01/02 06:37:47;;;;;;;12.07;5.78;;;;;;;;;;5074126;28;20046;-70
2021/01/02 06:40:18;;;;;;;11.75;6.03;;;;;;;;;;5075611;28;20013;-70
2021/01/02 06:42:51;;;;;;;10.23;5.78;;;;;;;;;;5057772;28;20021;-70
2021/01/02 06:45:36;;;;;;;11.50;5.57;;;;;;;;;;5057797;28;20489;-70
2021/01/02 06:48:11;;;;;;;9.88;5.85;;;;;;;;;;5059486;28;20020;-70
2021/01/02 06:50:36;;;;;;;14.35;6.60;;;;;;;;;;5075513;28;20376;-71
2021/01/02 06:53:17;;;;;;;13.88;6.43;;;;;;;;;;5075430;28;20020;-70
2021/01/02 06:55:42;;;;;;;17.20;8.00;;;;;;;;;;5057371;28;20025;-70
2021/01/02 06:58:17;;;;;;;13.38;6.15;;;;;;;;;;5057383;28;20519;-69
2021/01/02 07:00:42;;;;;;;10.38;5.75;;;;;;;;;;5075221;28;20062;-70
2021/01/02 07:03:28;;;;;;;11.75;6.25;;;;;;;;;;5057203;28;20032;-69
2021/01/02 07:05:53;;;;;;;10.65;5.70;;;;;;;;;;5059781;28;20044;-71
2021/01/02 07:08:28;;;;;;;9.73;5.60;;;;;;;;;;5075195;28;20058;-70
2021/01/02 07:11:13;;;;;;;16.55;7.68;;;;;;;;;;5075000;28;20016;-70
2021/01/02 07:13:38;;;;;;;15.48;7.40;;;;;;;;;;5060595;28;20099;-71
2021/01/02 07:16:24;;;;;;;11.57;6.20;;;;;;;;;;5038332;28;20116;-70
2021/01/02 07:18:49;;;;;;;11.88;6.78;;;;;;;;;;5059553;28;20028;-70
2021/01/02 07:21:24;;;;;;;10.75;6.35;;;;;;;;;;5056959;28;20017;-70
2021/01/02 07:23:49;;;;;;;16.42;6.95;;;;;;;;;;5074663;28;20031;-71
2021/01/02 07:26:20;;;;;;;11.88;6.38;;;;;;;;;;5074868;28;20016;-70
2021/01/02 07:28:55;;;;;;;22.33;10.40;;;;;;;;;;5073475;28;20481;-71
2021/01/02 07:31:20;;;;;;;11.65;7.30;;;;;;;;;;5073543;28;20017;-71
2021/01/02 07:33:46;;;;;;;16.13;9.40;;;;;;;;;;5074537;28;20028;-70
2021/01/02 07:36:21;;;;;;;14.48;6.00;;;;;;;;;;5056737;28;20028;-71
2021/01/02 07:38:46;;;;;;;13.88;6.72;;;;;;;;;;5074333;28;20044;-71
2021/01/02 07:41:12;;;;;;;11.38;6.50;;;;;;;;;;5074565;28;20023;-71
2021/01/02 07:43:38;;;;;;;13.65;6.43;;;;;;;;;;5074391;28;20017;-71
2021/01/02 07:46:03;;;;;;;14.75;7.00;;;;;;;;;;5056380;28;20027;-71
2021/01/02 07:48:29;;;;;;;11.65;6.00;;;;;;;;;;5056206;28;20013;-71
2021/01/02 07:50:56;;;;;;;15.63;7.10;;;;;;;;;;5056460;28;20476;-71
2021/01/02 07:53:21;;;;;;;12.65;6.22;;;;;;;;;;5074255;28;20016;-71
2021/01/02 07:55:46;;;;;;;21.90;8.85;;;;;;;;;;5074228;28;20031;-70
2021/01/02 07:58:12;;;;;;;19.42;8.65;;;;;;;;;;5074298;28;20492;-70
2021/01/02 08:00:37;;;;;;;15.30;7.13;;;;;;;;;;5074122;28;20021;-71
2021/01/02 08:03:04;;;;;;;23.40;8.77;;;;;;;;;;5056058;28;20029;-71
2021/01/02 08:05:29;;;;;;;20.27;7.32;;;;;;;;;;5074273;28;20016;-73
2021/01/02 08:07:56;;;;;;;20.90;9.13;;;;;;;;;;5073843;28;20143;-73
2021/01/02 08:10:22;;;;;;;15.50;7.70;;;;;;;;;;5056032;28;20012;-72
2021/01/02 08:12:48;;;;;;;13.77;7.20;;;;;;;;;;5074056;28;20051;-73
2021/01/02 08:15:29;;;;;;;20.17;9.45;;;;;;;;;;5055838;28;20499;-72
2021/01/02 08:17:59;;;;;;;31.27;13.10;;;;;;;;;;5071706;28;20523;-73
2021/01/02 08:20:25;;;;;;;16.00;7.57;;;;;;;;;;5073797;28;20104;-72
2021/01/02 08:22:51;;;;;;;16.63;6.93;;;;;;;;;;5057588;28;20056;-73
2021/01/02 08:25:17;;;;;;;12.93;7.03;;;;;;;;;;5074253;28;20097;-72
2021/01/02 08:27:43;;;;;;;15.48;7.40;;;;;;;;;;5055393;28;20062;-72
2021/01/02 08:30:10;;;;;;;15.55;6.63;;;;;;;;;;5073491;28;20016;-72
2021/01/02 08:32:38;;;;;;;17.85;9.75;;;;;;;;;;5073587;28;20027;-72
2021/01/02 08:35:14;;;;;;;19.00;8.20;;;;;;;;;;5055695;28;20024;-72
2021/01/02 08:37:40;;;;;;;15.35;8.40;;;;;;;;;;5073334;28;20078;-72
2021/01/02 08:40:07;;;;;;;17.10;7.57;;;;;;;;;;5073499;28;20017;-71
2021/01/02 08:42:34;;;;;;;13.07;6.97;;;;;;;;;;5055646;28;20069;-72
2021/01/02 08:44:59;;;;;;;11.25;6.57;;;;;;;;;;5073169;28;20392;-73
2021/01/02 08:47:25;;;;;;;14.30;6.35;;;;;;;;;;5072644;28;20012;-72
2021/01/02 08:49:50;;;;;;;13.43;8.05;;;;;;;;;;5055110;28;20468;-72
2021/01/02 08:52:19;;;;;;;15.50;8.05;;;;;;;;;;5055364;28;20012;-72
2021/01/02 08:54:45;;;;;;;14.25;8.02;;;;;;;;;;5073131;28;20066;-72
2021/01/02 08:57:20;;;;;;;20.80;7.93;;;;;;;;;;5073110;28;20441;-72
2021/01/02 08:59:45;;;;;;;15.32;7.97;;;;;;;;;;5072894;28;20031;-72
2021/01/02 09:02:20;;;;;;;19.15;8.65;;;;;;;;;;5055130;28;20016;-72
2021/01/02 09:04:55;;;;;;;16.80;8.55;;;;;;;;;;5072998;28;20048;-73
2021/01/02 09:07:21;;;;;;;15.32;7.18;;;;;;;;;;5055462;28;20045;-72
2021/01/02 09:09:46;;;;;;;12.35;7.05;;;;;;;;;;5072782;28;20088;-73
2021/01/02 09:12:12;;;;;;;14.27;7.55;;;;;;;;;;5055068;28;20038;-72
2021/01/02 09:14:49;;;;;;;13.85;7.90;;;;;;;;;;5072970;28;20443;-72
2021/01/02 09:17:14;;;;;;;16.58;7.72;;;;;;;;;;5071963;28;20020;-72
2021/01/02 09:19:40;;;;;;;11.43;7.28;;;;;;;;;;5072883;28;20017;-72
2021/01/02 09:22:16;;;;;;;16.13;9.20;;;;;;;;;;5055074;28;20047;-72
2021/01/02 09:24:41;;;;;;;14.70;8.68;;;;;;;;;;5072577;28;20017;-72
2021/01/02 09:27:07;;;;;;;15.00;8.85;;;;;;;;;;5054799;28;20020;-71
2021/01/02 09:29:38;;;;;;;20.63;9.55;;;;;;;;;;5054969;28;20031;-72
2021/01/02 09:32:09;;;;;;;15.88;7.97;;;;;;;;;;5072530;28;20032;-72
2021/01/02 09:34:34;;;;;;;13.45;7.88;;;;;;;;;;5072749;28;20035;-72
2021/01/02 09:37:00;;;;;;;18.42;7.85;;;;;;;;;;5072578;28;20020;-72
2021/01/02 09:39:25;;;;;;;14.52;8.38;;;;;;;;;;5071459;28;20058;-72
2021/01/02 09:41:51;;;;;;;19.77;8.70;;;;;;;;;;5072411;28;20025;-73
2021/01/02 09:44:16;;;;;;;14.55;7.68;;;;;;;;;;5072522;28;20078;-72
2021/01/02 09:46:42;;;;;;;14.77;7.55;;;;;;;;;;5072506;28;20381;-72
2021/01/02 09:49:07;;;;;;;12.93;7.53;;;;;;;;;;5053898;28;20016;-72
2021/01/02 09:51:32;;;;;;;14.82;7.60;;;;;;;;;;5054556;28;20016;-72
2021/01/02 09:53:58;;;;;;;17.63;7.97;;;;;;;;;;5072207;28;20028;-72
2021/01/02 09:56:23;;;;;;;15.40;8.10;;;;;;;;;;5072312;28;20028;-72
2021/01/02 09:58:49;;;;;;;12.90;6.57;;;;;;;;;;5072508;28;20029;-73
2021/01/02 10:01:15;;;;;;;14.25;7.05;;;;;;;;;;5072396;28;20055;-72
2021/01/02 10:03:41;;;;;;;15.02;6.93;;;;;;;;;;5054619;28;20095;-73
2021/01/02 10:06:06;;;;;;;13.93;6.93;;;;;;;;;;5054469;28;20095;-72
2021/01/02 10:08:32;;;;;;;15.32;7.60;;;;;;;;;;5072277;28;20013;-72
2021/01/02 10:10:57;;;;;;;20.60;8.35;;;;;;;;;;5072370;28;20012;-70
2021/01/02 10:13:23;;;;;;;12.30;8.52;;;;;;;;;;5054354;28;20021;-72
2021/01/02 10:18:57;;;;;;;15.93;7.80;;;;;;;;;;3113362;26;20052;-72
2021/01/02 10:21:24;;;;;;;15.95;6.95;;;;;;;;;;5113684;28;20024;-72
2021/01/02 10:23:49;;;;;;;17.52;8.18;;;;;;;;;;5113054;28;20404;-72
2021/01/02 10:26:24;;;;;;;15.32;7.90;;;;;;;;;;5112501;28;20008;-72
2021/01/02 10:28:49;;;;;;;18.50;9.93;;;;;;;;;;5112961;28;20016;-72
2021/01/02 10:31:22;;;;;;;17.08;8.77;;;;;;;;;;5077468;28;20026;-72
2021/01/02 10:33:48;;;;;;;10.95;6.53;;;;;;;;;;5112310;28;20480;-72
2021/01/02 10:36:13;;;;;;;12.15;6.55;;;;;;;;;;5094256;28;20058;-72
2021/01/02 10:38:39;;;;;;;13.40;6.35;;;;;;;;;;5094358;28;20024;-73
2021/01/02 10:41:04;;;;;;;14.07;7.20;;;;;;;;;;5094210;28;20049;-73
2021/01/02 10:43:29;;;;;;;10.75;6.57;;;;;;;;;;5093960;28;20081;-72
2021/01/02 10:45:55;;;;;;;13.50;7.28;;;;;;;;;;5112100;28;20019;-69
2021/01/02 10:48:20;;;;;;;13.40;7.07;;;;;;;;;;5111651;28;20015;-72
2021/01/02 10:50:46;;;;;;;12.25;6.13;;;;;;;;;;5096991;28;20019;-72
2021/01/02 10:53:12;;;;;;;13.23;7.05;;;;;;;;;;5080650;28;20016;-72
2021/01/02 10:55:37;;;;;;;16.35;6.72;;;;;;;;;;5097772;28;20489;-72
2021/01/02 10:58:03;;;;;;;15.30;6.50;;;;;;;;;;5115858;28;20038;-72
2021/01/02 11:00:28;;;;;;;11.93;6.30;;;;;;;;;;5115972;28;20007;-73
2021/01/02 11:02:53;;;;;;;13.15;7.55;;;;;;;;;;5097360;28;20019;-70
2021/01/02 11:05:19;;;;;;;12.95;6.22;;;;;;;;;;5097435;28;20384;-72
2021/01/02 11:07:44;;;;;;;11.68;7.22;;;;;;;;;;5097497;28;20012;-72
2021/01/02 11:10:10;;;;;;;11.40;6.88;;;;;;;;;;5097367;28;20078;-72
2021/01/02 11:12:35;;;;;;;11.88;7.32;;;;;;;;;;5115936;28;20043;-73
2021/01/02 11:15:01;;;;;;;13.65;7.57;;;;;;;;;;5115286;28;20022;-73
2021/01/02 11:17:26;;;;;;;12.55;7.15;;;;;;;;;;5096491;28;20026;-72
2021/01/02 11:19:52;;;;;;;14.77;7.43;;;;;;;;;;5115157;28;20071;-72
2021/01/02 11:22:17;;;;;;;13.82;7.35;;;;;;;;;;5115412;28;20467;-72
2021/01/02 11:24:44;;;;;;;14.10;7.18;;;;;;;;;;5115321;28;20391;-73
2021/01/02 11:27:10;;;;;;;15.13;6.47;;;;;;;;;;5080238;28;20016;-72
2021/01/02 11:29:35;;;;;;;11.57;6.95;;;;;;;;;;5097219;28;20012;-72
2021/01/02 11:32:04;;;;;;;19.83;8.40;;;;;;;;;;5114967;28;20020;-69
2021/01/02 11:34:29;;;;;;;15.07;7.87;;;;;;;;;;5097076;28;20019;-71
2021/01/02 11:36:57;;;;;;;13.63;8.02;;;;;;;;;;5097161;28;20246;-71
2021/01/02 11:39:23;;;;;;;13.00;7.00;;;;;;;;;;5115066;28;20379;-70
2021/01/02 11:41:49;;;;;;;17.55;9.07;;;;;;;;;;5096680;28;20110;-71
2021/01/02 11:44:16;;;;;;;16.25;7.00;;;;;;;;;;5096586;28;20107;-70
2021/01/02 11:46:43;;;;;;;14.27;7.50;;;;;;;;;;5079694;28;20015;-70
2021/01/02 11:49:09;;;;;;;15.30;6.40;;;;;;;;;;5096220;28;20016;-71
2021/01/02 11:51:35;;;;;;;16.63;7.53;;;;;;;;;;5096853;28;20046;-72
2021/01/02 11:54:00;;;;;;;12.90;6.60;;;;;;;;;;5096631;28;20444;-71
2021/01/02 11:56:27;;;;;;;11.35;6.50;;;;;;;;;;5114830;28;20008;-71
2021/01/02 11:58:53;;;;;;;10.48;6.18;;;;;;;;;;5114847;28;20012;-72
2021/01/02 12:01:19;;;;;;;12.75;6.55;;;;;;;;;;5113864;28;20016;-70
2021/01/02 12:03:45;;;;;;;11.90;6.90;;;;;;;;;;5114286;28;20037;-71
2021/01/02 12:06:11;;;;;;;14.23;7.57;;;;;;;;;;5096397;28;20023;-71
2021/01/02 12:08:36;;;;;;;16.25;7.28;;;;;;;;;;5079492;28;20015;-72
2021/01/02 12:11:02;;;;;;;12.13;6.72;;;;;;;;;;5096143;28;20375;-72
2021/01/02 12:13:27;;;;;;;14.88;6.57;;;;;;;;;;5096174;28;20020;-72
2021/01/02 12:21:18;;;;;;;14.90;6.90;;;;;;;;;;5061159;28;20513;-71
2021/01/02 12:23:43;;;;;;;10.88;5.95;;;;;;;;;;5055567;28;20039;-71
2021/01/02 12:26:08;;;;;;;16.50;6.47;;;;;;;;;;5072306;28;20020;-71
2021/01/02 12:28:34;;;;;;;12.60;7.40;;;;;;;;;;5073419;28;20040;-72
2021/01/02 12:30:59;;;;;;;12.52;6.00;;;;;;;;;;5055759;28;20028;-71
2021/01/02 12:33:25;;;;;;;12.88;6.68;;;;;;;;;;5055442;28;20016;-71
2021/01/02 12:35:50;;;;;;;14.65;6.82;;;;;;;;;;5038763;28;20107;-71
2021/01/02 12:38:15;;;;;;;11.50;6.97;;;;;;;;;;5073289;28;20028;-71
2021/01/02 12:40:42;;;;;;;9.60;5.38;;;;;;;;;;5073373;28;20012;-71
2021/01/02 12:43:07;;;;;;;11.88;5.97;;;;;;;;;;5072946;28;20035;-71
2021/01/02 12:45:33;;;;;;;15.13;6.43;;;;;;;;;;5038693;28;20024;-72
2021/01/02 12:47:58;;;;;;;10.40;5.90;;;;;;;;;;5072265;28;20020;-71
2021/01/02 12:50:23;;;;;;;13.43;5.70;;;;;;;;;;5073027;28;20085;-71
2021/01/02 12:52:49;;;;;;;12.35;6.22;;;;;;;;;;5071892;28;20142;-71
2021/01/02 12:55:14;;;;;;;12.32;6.15;;;;;;;;;;5071636;28;20107;-71
2021/01/02 12:57:39;;;;;;;13.50;7.40;;;;;;;;;;5073057;28;20028;-70
2021/01/02 13:00:05;;;;;;;11.50;6.40;;;;;;;;;;5072716;28;20021;-71
2021/01/02 13:02:31;;;;;;;10.27;5.93;;;;;;;;;;5071487;28;20032;-72
2021/01/02 13:04:56;;;;;;;9.25;5.57;;;;;;;;;;5071637;28;20070;-72
2021/01/02 13:07:22;;;;;;;11.02;5.53;;;;;;;;;;5054981;28;20534;-71
2021/01/02 13:09:48;;;;;;;6.95;5.00;;;;;;;;;;5072566;28;20016;-71
2021/01/02 13:12:14;;;;;;;11.20;6.18;;;;;;;;;;5072714;28;20108;-71
2021/01/02 13:14:41;;;;;;;13.23;6.00;;;;;;;;;;5071371;28;20088;-72
2021/01/02 13:17:07;;;;;;;12.90;5.43;;;;;;;;;;5071812;28;20091;-71
2021/01/02 13:19:34;;;;;;;12.10;6.32;;;;;;;;;;5054815;28;20105;-71
2021/01/02 13:22:01;;;;;;;14.15;6.57;;;;;;;;;;5072219;28;20052;-71
2021/01/02 13:24:27;;;;;;;11.45;6.38;;;;;;;;;;5037697;28;20066;-71
2021/01/02 13:26:54;;;;;;;12.35;5.57;;;;;;;;;;5054641;28;20491;-71
2021/01/02 13:29:20;;;;;;;14.00;5.80;;;;;;;;;;5054604;28;20079;-70
2021/01/02 13:31:47;;;;;;;12.60;6.97;;;;;;;;;;5072324;28;20062;-70
2021/01/02 13:34:14;;;;;;;14.27;9.05;;;;;;;;;;5054566;28;20033;-70
2021/01/02 13:36:39;;;;;;;17.27;8.60;;;;;;;;;;5072774;28;20074;-71
2021/01/02 13:39:06;;;;;;;12.35;6.80;;;;;;;;;;5054667;28;20021;-71
2021/01/02 13:41:31;;;;;;;9.43;5.85;;;;;;;;;;5072396;28;20355;-71
2021/01/02 13:43:56;;;;;;;10.95;7.18;;;;;;;;;;5054293;28;20058;-71
2021/01/02 13:46:22;;;;;;;10.50;6.40;;;;;;;;;;5054652;28;20016;-71
2021/01/02 13:48:48;;;;;;;14.77;6.90;;;;;;;;;;5071786;28;20516;-71
2021/01/02 13:51:13;;;;;;;11.93;6.07;;;;;;;;;;5037964;28;20021;-70
2021/01/02 13:53:39;;;;;;;12.27;6.05;;;;;;;;;;5072575;28;20048;-71
2021/01/02 13:56:09;;;;;;;10.38;5.72;;;;;;;;;;5072228;28;20380;-71
2021/01/02 13:58:34;;;;;;;12.43;6.30;;;;;;;;;;5072290;28;20048;-72
2021/01/02 14:01:00;;;;;;;12.40;6.22;;;;;;;;;;5072104;28;20082;-71
2021/01/02 14:03:25;;;;;;;13.10;6.85;;;;;;;;;;5054313;28;20530;-71
2021/01/02 14:05:50;;;;;;;12.43;7.53;;;;;;;;;;5072131;28;20028;-71
2021/01/02 14:08:16;;;;;;;14.35;7.95;;;;;;;;;;5072126;28;20500;-71
2021/01/02 14:10:42;;;;;;;15.40;6.90;;;;;;;;;;5054363;28;20024;-71
2021/01/02 14:13:07;;;;;;;15.30;7.80;;;;;;;;;;5053927;28;20017;-70
2021/01/02 14:15:32;;;;;;;20.42;9.63;;;;;;;;;;5037382;28;20107;-71
2021/01/02 14:17:58;;;;;;;19.45;8.73;;;;;;;;;;5053501;28;20012;-71
2021/01/02 14:20:23;;;;;;;14.38;7.68;;;;;;;;;;5071817;28;20025;-70
2021/01/02 14:22:49;;;;;;;14.55;7.03;;;;;;;;;;5056528;28;20424;-71
2021/01/02 14:25:14;;;;;;;12.35;6.80;;;;;;;;;;5056233;28;20059;-70
2021/01/02 14:27:40;;;;;;;14.25;6.80;;;;;;;;;;5057954;28;20017;-70
2021/01/02 14:30:07;;;;;;;14.50;7.20;;;;;;;;;;5057984;28;20074;-70
2021/01/02 14:32:32;;;;;;;13.98;7.63;;;;;;;;;;5075780;28;20013;-71
2021/01/02 14:34:57;;;;;;;15.45;8.07;;;;;;;;;;5075666;28;20051;-71
2021/01/02 14:37:23;;;;;;;15.40;7.25;;;;;;;;;;5057673;28;20021;-71
2021/01/02 14:39:48;;;;;;;15.80;7.18;;;;;;;;;;5075437;28;20013;-71
2021/01/02 14:42:14;;;;;;;11.95;7.28;;;;;;;;;;5075459;28;20073;-71
2021/01/02 14:44:39;;;;;;;14.05;6.63;;;;;;;;;;5075566;28;20384;-71
2021/01/02 14:47:05;;;;;;;14.85;7.47;;;;;;;;;;5075454;28;20091;-71
2021/01/02 14:49:31;;;;;;;13.90;8.07;;;;;;;;;;5040765;28;20013;-71
2021/01/02 14:51:56;;;;;;;14.93;7.25;;;;;;;;;;5057405;28;20021;-71
2021/01/02 14:54:23;;;;;;;17.52;8.98;;;;;;;;;;5075146;28;20023;-71
2021/01/02 14:56:50;;;;;;;9.52;5.53;;;;;;;;;;5075359;28;20017;-70
2021/01/02 14:59:16;;;;;;;13.38;7.60;;;;;;;;;;5057141;28;20473;-71
2021/01/02 15:01:42;;;;;;;13.05;6.57;;;;;;;;;;5074953;28;20056;-71
2021/01/02 15:04:08;;;;;;;13.07;6.93;;;;;;;;;;5074749;28;20488;-71
2021/01/02 15:06:33;;;;;;;16.42;9.65;;;;;;;;;;5056956;28;20017;-71
2021/01/02 15:08:58;;;;;;;17.95;9.70;;;;;;;;;;5057015;28;20439;-71
2021/01/02 15:11:25;;;;;;;20.42;11.52;;;;;;;;;;5074647;28;20483;-70
2021/01/02 15:13:51;;;;;;;24.85;13.02;;;;;;;;;;5074763;28;20021;-70
2021/01/02 15:18:50;;;;;;;21.08;10.75;;;;;;;;;;5051793;28;20052;-71
2021/01/02 15:21:15;;;;;;;19.90;10.90;;;;;;;;;;5036912;28;20033;-70
2021/01/02 15:23:41;;;;;;;21.70;10.98;;;;;;;;;;5036445;28;20031;-70
2021/01/02 15:26:06;;;;;;;21.85;10.02;;;;;;;;;;5054503;28;20428;-70
2021/01/02 15:28:32;;;;;;;25.33;11.75;;;;;;;;;;5054405;28;20032;-72
2021/01/02 15:30:59;;;;;;;22.15;10.35;;;;;;;;;;5054231;28;20020;-71
2021/01/02 15:33:24;;;;;;;18.00;9.25;;;;;;;;;;5054081;28;20355;-71
2021/01/02 15:35:50;;;;;;;22.02;10.20;;;;;;;;;;5035361;28;20021;-71
2021/01/02 15:38:16;;;;;;;18.02;9.20;;;;;;;;;;5054397;28;20021;-71
2021/01/02 15:40:43;;;;;;;16.92;8.93;;;;;;;;;;5054582;28;20580;-71
2021/01/02 15:43:09;;;;;;;21.85;9.95;;;;;;;;;;5054270;28;20021;-71
2021/01/02 15:45:34;;;;;;;19.83;9.45;;;;;;;;;;5036686;28;20036;-71
2021/01/02 15:48:00;;;;;;;18.45;9.43;;;;;;;;;;5053430;28;20021;-71
2021/01/02 15:50:26;;;;;;;22.13;11.38;;;;;;;;;;5036366;28;20017;-72
2021/01/02 15:52:51;;;;;;;67.45;28.00;;;;;;;;;;5036394;28;20025;-72
2021/01/02 15:55:16;;;;;;;78.80;30.70;;;;;;;;;;5054044;28;20025;-71
2021/01/02 15:57:42;;;;;;;48.88;23.20;;;;;;;;;;5035920;28;20023;-71